Time;durP1;ratioP1;P1;durP2;ratioP2;P2;SDS_P1;SDS_P2;PMS_P1;PMS_P2;Temp;Humidity;BMP_temperature;BMP_pressure;BME280_temperature;BME280_humidity;BME280_pressure;Samples;Min_cycle;Max_cycle;Signal;HPM_P1;HPM_P2
2021/12/12 00:00:54;;;;;;;0.50;0.10;;;4.80;1.00;;;;;;4994622;28;20466;-67
2021/12/12 00:03:39;;;;;;;0.80;0.20;;;4.80;1.00;;;;;;4993919;28;21043;-66
2021/12/12 00:06:10;;;;;;;0.50;0.10;;;4.80;1.00;;;;;;4992959;28;20481;-67
2021/12/12 00:08:41;;;;;;;0.50;0.10;;;4.70;1.00;;;;;;4993718;28;20494;-66
2021/12/12 00:11:13;;;;;;;0.50;0.10;;;4.70;1.00;;;;;;4993726;28;20817;-66
2021/12/12 00:13:45;;;;;;;0.50;0.10;;;4.70;1.00;;;;;;4994134;28;20459;-66
2021/12/12 00:16:14;;;;;;;0.60;0.40;;;4.70;1.00;;;;;;4994681;28;20560;-65
2021/12/12 00:18:44;;;;;;;0.50;0.10;;;4.60;1.00;;;;;;4994160;28;20659;-67
2021/12/12 00:21:17;;;;;;;0.50;0.10;;;4.60;1.00;;;;;;4993598;28;20481;-65
2021/12/12 00:23:45;;;;;;;1.13;0.93;;;4.60;1.00;;;;;;4988121;28;20467;-66
2021/12/12 00:26:14;;;;;;;0.70;0.30;;;4.70;1.00;;;;;;4993459;28;20444;-68
2021/12/12 00:28:42;;;;;;;0.50;0.10;;;;;;;;;;4993112;28;20878;-66
2021/12/12 00:31:15;;;;;;;0.50;0.20;;;4.50;1.00;;;;;;4993765;28;20457;-64
2021/12/12 00:33:47;;;;;;;0.50;0.10;;;4.50;1.00;;;;;;4994446;28;20535;-67
2021/12/12 00:36:17;;;;;;;0.50;0.10;;;4.50;1.00;;;;;;4993767;28;20457;-66
2021/12/12 00:38:47;;;;;;;0.50;0.10;;;4.60;1.00;;;;;;4987565;28;20472;-66
2021/12/12 00:41:20;;;;;;;0.60;0.20;;;4.70;1.00;;;;;;4992280;28;20543;-66
2021/12/12 00:43:52;;;;;;;0.50;0.10;;;4.70;1.00;;;;;;4993823;28;20224;-65
2021/12/12 00:46:23;;;;;;;0.50;0.10;;;4.70;1.00;;;;;;4993855;28;20944;-65
2021/12/12 00:48:53;;;;;;;0.50;0.10;;;4.70;1.00;;;;;;4993619;28;20496;-66
2021/12/12 00:51:27;;;;;;;0.50;0.10;;;4.70;1.00;;;;;;4993999;28;20466;-65
2021/12/12 00:53:56;;;;;;;0.50;0.10;;;4.60;1.00;;;;;;4995058;28;20449;-65
2021/12/12 00:56:24;;;;;;;0.60;0.40;;;4.70;1.00;;;;;;4992774;28;20457;-65
2021/12/12 00:58:53;;;;;;;0.50;0.10;;;4.60;1.00;;;;;;4994226;28;20481;-65
2021/12/12 01:01:25;;;;;;;0.50;0.10;;;4.60;1.00;;;;;;4998945;28;20471;-66
2021/12/12 01:03:58;;;;;;;0.60;0.30;;;4.60;1.00;;;;;;4998044;28;21136;-65
2021/12/12 01:06:27;;;;;;;0.50;0.20;;;4.60;1.00;;;;;;4997404;28;20493;-65
2021/12/12 01:09:00;;;;;;;0.50;0.10;;;4.60;1.00;;;;;;4994374;28;21001;-66
2021/12/12 01:11:31;;;;;;;0.50;0.10;;;4.50;1.00;;;;;;4993751;28;20468;-65
2021/12/12 01:14:02;;;;;;;0.50;0.10;;;4.50;1.00;;;;;;4993161;28;20958;-64
2021/12/12 01:16:35;;;;;;;0.50;0.10;;;4.60;1.00;;;;;;4993769;28;20453;-66
2021/12/12 01:19:08;;;;;;;0.67;0.47;;;4.60;1.00;;;;;;4994458;28;20451;-66
2021/12/12 01:21:41;;;;;;;0.50;0.10;;;4.60;1.00;;;;;;4994178;28;20572;-66
2021/12/12 01:24:13;;;;;;;0.50;0.10;;;4.60;1.00;;;;;;4994067;28;20471;-66
2021/12/12 01:26:42;;;;;;;0.50;0.10;;;4.50;1.00;;;;;;4993783;28;20437;-65
2021/12/12 01:29:10;;;;;;;0.50;0.10;;;4.50;1.00;;;;;;4992538;28;20807;-66
2021/12/12 01:31:46;;;;;;;0.50;0.10;;;4.50;1.00;;;;;;4993290;28;20479;-67
2021/12/12 01:34:18;;;;;;;0.50;0.10;;;4.60;1.00;;;;;;4992863;28;20454;-66
2021/12/12 01:36:57;;;;;;;0.50;0.10;;;4.60;1.00;;;;;;4993196;28;20474;-66
2021/12/12 01:39:26;;;;;;;0.50;0.10;;;4.60;1.00;;;;;;4994034;28;20449;-66
2021/12/12 01:41:58;;;;;;;0.50;0.10;;;4.70;1.00;;;;;;4994413;28;20482;-66
2021/12/12 01:44:30;;;;;;;0.50;0.10;;;4.60;1.00;;;;;;4996442;28;20458;-66
2021/12/12 01:47:03;;;;;;;0.50;0.10;;;4.60;1.00;;;;;;4994251;28;20442;-67
2021/12/12 01:49:35;;;;;;;0.50;0.10;;;4.60;1.00;;;;;;4992417;28;20917;-66
2021/12/12 01:52:06;;;;;;;0.50;0.10;;;4.50;1.00;;;;;;4993038;28;20460;-66
2021/12/12 01:54:43;;;;;;;0.50;0.10;;;4.60;1.00;;;;;;4992651;28;20495;-66
2021/12/12 01:57:17;;;;;;;0.50;0.17;;;4.60;1.00;;;;;;4992445;28;20539;-66
2021/12/12 01:59:48;;;;;;;0.50;0.10;;;4.60;1.00;;;;;;4992128;28;20544;-67
2021/12/12 02:02:19;;;;;;;0.50;0.10;;;4.60;1.00;;;;;;4992552;28;20468;-66
2021/12/12 02:04:51;;;;;;;0.50;0.20;;;4.60;1.00;;;;;;4992271;28;20455;-66
2021/12/12 02:07:23;;;;;;;0.50;0.10;;;4.60;1.00;;;;;;4992268;28;20967;-67
2021/12/12 02:09:52;;;;;;;2.80;1.27;;;4.50;1.00;;;;;;4991837;28;20454;-66
2021/12/12 02:12:23;;;;;;;1.10;0.77;;;4.40;1.00;;;;;;4992511;28;20475;-66
2021/12/12 02:14:52;;;;;;;0.50;0.10;;;4.40;1.00;;;;;;4992247;28;20458;-67
2021/12/12 02:17:29;;;;;;;0.50;0.10;;;4.40;1.00;;;;;;4992912;28;20529;-66
2021/12/12 02:20:06;;;;;;;0.50;0.10;;;4.40;1.00;;;;;;4992090;28;20869;-66
2021/12/12 02:22:53;;;;;;;0.50;0.10;;;4.40;1.00;;;;;;4992513;28;20441;-67
2021/12/12 02:36:25;;;;;;;1.13;1.13;;;4.20;1.00;;;;;;4987927;28;20488;-66
2021/12/12 02:38:55;;;;;;;0.50;0.10;;;4.10;1.00;;;;;;4988611;28;20535;-66
2021/12/12 02:41:25;;;;;;;0.50;0.10;;;4.10;1.00;;;;;;4991091;28;20484;-66
2021/12/12 02:43:55;;;;;;;0.50;0.10;;;4.20;1.00;;;;;;4985113;28;20579;-65
2021/12/12 02:46:27;;;;;;;0.50;0.10;;;4.20;1.00;;;;;;4973318;28;20560;-66
2021/12/12 02:49:04;;;;;;;0.50;0.10;;;4.20;1.00;;;;;;4974117;28;20480;-65
2021/12/12 02:51:33;;;;;;;0.50;0.10;;;4.30;1.00;;;;;;4996232;28;20477;-66
2021/12/12 02:54:02;;;;;;;0.50;0.10;;;4.30;1.00;;;;;;4996162;28;20450;-65
2021/12/12 02:56:34;;;;;;;0.83;0.60;;;4.30;1.00;;;;;;4996318;28;20496;-65
2021/12/12 02:59:04;;;;;;;0.50;0.10;;;4.30;1.00;;;;;;4997952;28;20446;-65
2021/12/12 03:01:36;;;;;;;0.50;0.10;;;4.30;1.00;;;;;;4984322;28;20466;-64
2021/12/12 03:04:06;;;;;;;0.53;0.27;;;4.30;1.00;;;;;;4994653;28;20956;-65
2021/12/12 03:06:37;;;;;;;0.50;0.10;;;4.30;1.00;;;;;;4981205;28;20446;-65
2021/12/12 03:09:09;;;;;;;0.57;0.37;;;4.20;1.00;;;;;;4977139;28;20478;-64
2021/12/12 03:11:37;;;;;;;0.50;0.10;;;4.20;1.00;;;;;;4976989;28;20468;-67
2021/12/12 03:14:06;;;;;;;0.50;0.10;;;4.20;1.00;;;;;;4986806;28;20449;-67
2021/12/12 03:16:36;;;;;;;0.50;0.10;;;4.20;1.00;;;;;;4997325;28;20455;-64
2021/12/12 03:19:06;;;;;;;0.50;0.10;;;4.20;1.00;;;;;;4998442;28;20940;-66
2021/12/12 03:21:37;;;;;;;0.50;0.10;;;4.20;1.00;;;;;;4997047;28;20598;-65
2021/12/12 03:24:12;;;;;;;0.50;0.10;;;4.10;1.00;;;;;;4997370;28;20540;-65
2021/12/12 03:26:43;;;;;;;0.50;0.10;;;4.10;1.00;;;;;;4996672;28;20959;-65
2021/12/12 03:29:12;;;;;;;0.50;0.10;;;4.10;1.00;;;;;;4995818;28;20479;-67
2021/12/12 03:31:44;;;;;;;2.10;1.90;;;4.20;1.00;;;;;;4996578;28;21019;-66
2021/12/12 03:34:15;;;;;;;0.50;0.10;;;4.10;1.00;;;;;;4995604;28;20486;-65
2021/12/12 03:36:44;;;;;;;0.50;0.10;;;4.00;1.00;;;;;;4996342;28;20452;-64
2021/12/12 03:39:18;;;;;;;0.50;0.10;;;4.10;1.00;;;;;;4996645;28;20445;-64
2021/12/12 03:41:47;;;;;;;0.50;0.10;;;4.20;1.00;;;;;;4996305;28;20497;-65
2021/12/12 03:44:18;;;;;;;0.50;0.10;;;4.20;1.00;;;;;;4995255;28;20455;-65
2021/12/12 03:46:49;;;;;;;0.50;0.10;;;4.20;1.00;;;;;;4995159;28;20467;-65
2021/12/12 03:49:18;;;;;;;0.50;0.20;;;4.20;1.00;;;;;;4995301;28;20523;-64
2021/12/12 03:51:47;;;;;;;0.50;0.10;;;4.20;1.00;;;;;;4995665;28;20479;-67
2021/12/12 03:54:19;;;;;;;0.50;0.10;;;4.30;1.00;;;;;;4995630;28;20455;-64
2021/12/12 03:56:47;;;;;;;0.50;0.10;;;4.30;1.00;;;;;;4975819;28;20933;-65
2021/12/12 03:59:16;;;;;;;0.50;0.10;;;4.30;1.00;;;;;;4985363;28;20810;-65
2021/12/12 04:01:47;;;;;;;0.50;0.10;;;4.40;1.00;;;;;;4977304;28;20477;-68
2021/12/12 04:04:19;;;;;;;0.50;0.10;;;4.40;1.00;;;;;;4975802;28;20450;-65
2021/12/12 04:06:48;;;;;;;0.50;0.10;;;4.40;1.00;;;;;;4976267;28;20468;-66
2021/12/12 04:09:18;;;;;;;0.50;0.10;;;4.40;1.00;;;;;;4975515;28;20501;-65
2021/12/12 04:11:50;;;;;;;0.50;0.10;;;4.40;1.00;;;;;;4994049;28;20477;-64
2021/12/12 04:14:19;;;;;;;0.50;0.10;;;4.40;1.00;;;;;;4994336;28;20478;-64
2021/12/12 04:16:53;;;;;;;0.50;0.20;;;4.40;1.00;;;;;;4995685;28;20445;-65
2021/12/12 04:19:22;;;;;;;0.90;0.73;;;4.40;1.00;;;;;;4994110;28;20948;-65
2021/12/12 04:21:50;;;;;;;0.50;0.10;;;4.40;1.00;;;;;;4994494;28;20482;-65
2021/12/12 04:24:22;;;;;;;0.50;0.10;;;4.40;1.00;;;;;;4993924;28;20455;-67
2021/12/12 04:26:51;;;;;;;0.50;0.10;;;4.40;1.00;;;;;;4993173;28;20962;-67
2021/12/12 04:29:24;;;;;;;0.50;0.10;;;4.40;1.00;;;;;;4992423;28;20477;-64
2021/12/12 04:31:55;;;;;;;0.80;0.50;;;4.40;1.00;;;;;;4993730;28;21103;-64
2021/12/12 04:34:31;;;;;;;0.50;0.20;;;4.40;1.00;;;;;;4993399;28;20890;-67
2021/12/12 04:37:00;;;;;;;0.50;0.10;;;4.40;1.00;;;;;;4993847;28;20486;-66
2021/12/12 04:39:32;;;;;;;0.50;0.10;;;4.40;1.00;;;;;;4993651;28;20960;-64
2021/12/12 04:42:04;;;;;;;0.50;0.10;;;4.40;1.00;;;;;;4993682;28;20487;-64
2021/12/12 04:44:37;;;;;;;0.77;0.40;;;4.40;1.00;;;;;;4993671;28;20454;-64
2021/12/12 04:50:04;;;;;;;9.63;6.70;;;4.30;1.00;;;;;;4993476;28;21001;-65
2021/12/12 04:52:41;;;;;;;0.50;0.10;;;4.30;1.00;;;;;;4994187;28;20841;-66
2021/12/12 04:55:16;;;;;;;0.50;0.10;;;4.40;1.00;;;;;;4993569;28;20452;-65
2021/12/12 04:57:47;;;;;;;0.60;0.30;;;4.30;1.00;;;;;;4994771;28;20509;-67
2021/12/12 05:00:19;;;;;;;0.50;0.20;;;4.30;1.00;;;;;;4993598;28;20466;-64
2021/12/12 05:02:55;;;;;;;0.50;0.10;;;4.30;1.00;;;;;;4994778;28;20811;-65
2021/12/12 05:05:29;;;;;;;0.50;0.10;;;4.30;1.00;;;;;;4993167;28;20456;-65
2021/12/12 05:08:04;;;;;;;0.50;0.10;;;4.40;1.00;;;;;;4994139;28;20458;-65
2021/12/12 05:10:38;;;;;;;0.50;0.10;;;4.40;1.00;;;;;;4993459;28;20481;-66
2021/12/12 05:13:12;;;;;;;0.50;0.10;;;4.40;1.00;;;;;;4993510;28;20450;-67
2021/12/12 05:15:44;;;;;;;0.50;0.10;;;4.50;1.00;;;;;;4993264;28;20785;-69
2021/12/12 05:18:19;;;;;;;0.50;0.10;;;4.50;1.00;;;;;;4993099;28;20439;-67
2021/12/12 05:20:50;;;;;;;0.50;0.10;;;4.50;1.00;;;;;;4993088;28;20478;-65
2021/12/12 05:23:21;;;;;;;0.50;0.10;;;4.60;1.00;;;;;;4993188;28;20448;-65
2021/12/12 05:25:53;;;;;;;0.50;0.10;;;4.50;1.00;;;;;;4994977;28;20440;-66
2021/12/12 05:28:29;;;;;;;2.97;0.70;;;4.60;1.00;;;;;;4995074;28;20459;-66
2021/12/12 05:31:00;;;;;;;0.50;0.10;;;4.50;1.00;;;;;;4995729;28;20486;-66
2021/12/12 05:33:29;;;;;;;0.50;0.10;;;4.50;1.00;;;;;;4997096;28;20458;-65
2021/12/12 05:35:57;;;;;;;0.50;0.10;;;4.50;1.00;;;;;;4998324;28;20833;-65
2021/12/12 05:38:27;;;;;;;0.50;0.10;;;4.60;1.00;;;;;;5001384;28;20460;-66
2021/12/12 05:40:56;;;;;;;0.50;0.20;;;4.60;1.00;;;;;;4998783;28;20480;-65
2021/12/12 05:43:25;;;;;;;0.50;0.10;;;4.60;1.00;;;;;;4997697;28;20443;-64
2021/12/12 05:45:53;;;;;;;0.50;0.10;;;4.60;1.00;;;;;;4996407;28;20707;-66
2021/12/12 05:48:23;;;;;;;0.50;0.10;;;4.60;1.00;;;;;;4997073;28;20459;-65
2021/12/12 05:50:52;;;;;;;0.50;0.10;;;4.50;1.00;;;;;;4997683;28;20488;-66
2021/12/12 05:53:21;;;;;;;0.50;0.10;;;4.50;1.00;;;;;;4997571;28;20489;-64
2021/12/12 05:55:50;;;;;;;0.50;0.10;;;4.40;1.00;;;;;;4998012;28;20448;-65
2021/12/12 05:58:23;;;;;;;0.50;0.10;;;4.40;1.00;;;;;;4999102;28;20445;-66
2021/12/12 06:00:54;;;;;;;0.50;0.10;;;4.50;1.00;;;;;;4997735;28;20469;-64
2021/12/12 06:03:26;;;;;;;0.50;0.10;;;4.50;1.00;;;;;;4996928;28;20488;-65
2021/12/12 06:05:58;;;;;;;0.50;0.10;;;4.50;1.00;;;;;;4994920;28;20491;-67
2021/12/12 06:08:27;;;;;;;2.23;2.10;;;4.50;1.00;;;;;;4995970;28;20461;-65
2021/12/12 06:10:57;;;;;;;0.50;0.10;;;4.50;1.00;;;;;;4994420;28;20552;-64
2021/12/12 06:13:28;;;;;;;0.50;0.10;;;4.50;1.00;;;;;;4995983;28;20908;-65
2021/12/12 06:15:58;;;;;;;0.50;0.10;;;4.50;1.00;;;;;;4996415;28;20443;-66
2021/12/12 06:18:29;;;;;;;0.60;0.57;;;4.50;1.00;;;;;;4996568;28;20718;-65
2021/12/12 06:20:58;;;;;;;0.80;0.37;;;4.60;1.00;;;;;;4996895;28;20529;-64
2021/12/12 06:23:27;;;;;;;0.50;0.10;;;4.60;1.00;;;;;;4998109;28;21485;-65
2021/12/12 06:25:55;;;;;;;0.50;0.10;;;4.60;1.00;;;;;;4999150;28;20533;-65
2021/12/12 06:28:26;;;;;;;0.50;0.10;;;4.70;1.00;;;;;;4998429;28;20450;-65
2021/12/12 06:30:55;;;;;;;0.50;0.10;;;4.60;1.00;;;;;;5001039;28;21027;-67
2021/12/12 06:33:23;;;;;;;0.50;0.10;;;;;;;;;;5002023;28;20464;-66
2021/12/12 06:35:52;;;;;;;0.50;0.10;;;4.70;1.00;;;;;;5001294;28;20458;-66
2021/12/12 06:38:21;;;;;;;0.50;0.10;;;4.70;1.00;;;;;;4998881;28;20986;-65
2021/12/12 06:40:50;;;;;;;0.50;0.10;;;4.70;1.00;;;;;;4996355;28;20478;-65
2021/12/12 06:43:21;;;;;;;0.50;0.20;;;4.70;1.00;;;;;;4997997;28;20449;-64
2021/12/12 06:45:52;;;;;;;0.50;0.10;;;4.70;1.00;;;;;;4997617;28;20460;-67
2021/12/12 06:48:20;;;;;;;0.50;0.10;;;4.70;1.00;;;;;;4997075;28;20460;-66
2021/12/12 06:50:51;;;;;;;0.50;0.10;;;4.60;1.00;;;;;;4996027;28;20486;-65
2021/12/12 06:53:23;;;;;;;0.50;0.10;;;4.60;1.00;;;;;;4996778;28;20448;-66
2021/12/12 06:55:52;;;;;;;0.50;0.10;;;4.60;1.00;;;;;;4996129;28;20952;-66
2021/12/12 06:58:21;;;;;;;0.50;0.10;;;4.60;1.00;;;;;;4995793;28;21274;-66
2021/12/12 07:00:55;;;;;;;0.50;0.10;;;4.60;1.00;;;;;;4995505;28;20879;-67
2021/12/12 07:03:24;;;;;;;0.60;0.30;;;4.50;1.00;;;;;;4996297;28;20604;-68
2021/12/12 07:05:53;;;;;;;0.50;0.10;;;4.60;1.00;;;;;;4996864;28;20539;-65
2021/12/12 07:08:23;;;;;;;0.50;0.10;;;4.50;1.00;;;;;;4997559;28;20953;-66
2021/12/12 07:10:52;;;;;;;0.50;0.10;;;4.50;1.00;;;;;;4996765;28;20494;-68
2021/12/12 07:13:22;;;;;;;0.50;0.10;;;4.50;1.00;;;;;;4998577;28;20510;-66
2021/12/12 07:15:56;;;;;;;0.50;0.10;;;4.40;1.00;;;;;;4998847;28;20596;-66
2021/12/12 07:18:27;;;;;;;0.50;0.10;;;4.50;1.00;;;;;;4998353;28;20448;-66
2021/12/12 07:20:59;;;;;;;0.50;0.20;;;4.50;1.00;;;;;;4997779;28;20469;-66
2021/12/12 07:23:28;;;;;;;0.50;0.10;;;4.50;1.00;;;;;;4996701;28;20453;-66
2021/12/12 07:25:58;;;;;;;0.60;0.43;;;4.50;1.00;;;;;;4997399;28;20964;-65
2021/12/12 07:28:27;;;;;;;0.50;0.20;;;4.50;1.00;;;;;;4997611;28;20818;-66
2021/12/12 07:30:59;;;;;;;0.50;0.10;;;4.40;1.00;;;;;;4997548;28;20512;-66
2021/12/12 07:33:29;;;;;;;0.50;0.10;;;4.40;1.00;;;;;;4997729;28;20509;-65
2021/12/12 07:35:59;;;;;;;0.50;0.20;;;4.40;1.00;;;;;;4996987;28;20457;-65
2021/12/12 07:38:28;;;;;;;0.50;0.20;;;4.40;1.00;;;;;;4997609;28;20450;-65
2021/12/12 07:40:57;;;;;;;0.50;0.10;;;4.50;1.00;;;;;;4996813;28;20501;-68
2021/12/12 07:43:26;;;;;;;0.50;0.10;;;4.50;1.00;;;;;;4997408;28;20453;-66
2021/12/12 07:45:56;;;;;;;0.50;0.10;;;4.50;1.00;;;;;;4997510;28;20817;-67
2021/12/12 07:48:24;;;;;;;0.50;0.10;;;4.50;1.00;;;;;;4998275;28;20521;-65
2021/12/12 07:50:54;;;;;;;0.50;0.10;;;4.50;1.00;;;;;;4998072;28;20501;-67
2021/12/12 07:53:25;;;;;;;0.50;0.10;;;4.50;1.00;;;;;;4999215;28;20543;-66
2021/12/12 07:55:54;;;;;;;0.50;0.10;;;4.50;1.00;;;;;;4999385;28;20458;-66
2021/12/12 07:58:24;;;;;;;0.50;0.10;;;4.50;1.00;;;;;;4998023;28;20458;-69
2021/12/12 08:00:54;;;;;;;0.50;0.10;;;4.50;1.00;;;;;;4996168;28;20559;-64
2021/12/12 08:03:27;;;;;;;2.23;0.63;;;4.50;1.00;;;;;;4997187;28;20512;-68
2021/12/12 08:05:56;;;;;;;0.70;0.30;;;4.50;1.00;;;;;;4995671;28;20456;-65
2021/12/12 08:08:25;;;;;;;1.47;0.60;;;4.50;1.00;;;;;;4996294;28;20453;-65
2021/12/12 08:10:55;;;;;;;0.50;0.30;;;4.50;1.00;;;;;;4995737;28;20470;-66
2021/12/12 08:13:23;;;;;;;0.50;0.10;;;4.50;1.00;;;;;;4996492;28;20453;-65
2021/12/12 08:15:51;;;;;;;0.50;0.10;;;4.50;1.00;;;;;;4996484;28;21095;-65
2021/12/12 08:18:21;;;;;;;0.50;0.30;;;4.60;1.00;;;;;;4997567;28;21052;-66
2021/12/12 08:20:52;;;;;;;2.87;2.67;;;4.70;1.00;;;;;;4996777;28;20474;-65
2021/12/12 08:23:21;;;;;;;1.80;1.17;;;4.70;1.00;;;;;;4996963;28;20455;-67
2021/12/12 08:25:51;;;;;;;0.67;0.50;;;4.60;1.00;;;;;;4996617;28;20458;-65
2021/12/12 08:28:20;;;;;;;0.50;0.20;;;4.60;1.00;;;;;;4996256;28;20545;-68
2021/12/12 08:30:49;;;;;;;0.70;0.50;;;4.50;1.00;;;;;;4994814;28;20488;-66
2021/12/12 08:33:18;;;;;;;0.50;0.10;;;4.50;1.00;;;;;;4995146;28;21107;-66
2021/12/12 08:35:47;;;;;;;0.83;0.70;;;4.60;1.00;;;;;;4995078;28;20456;-67
2021/12/12 08:38:17;;;;;;;0.50;0.20;;;4.60;1.00;;;;;;4995021;28;20970;-66
2021/12/12 08:40:50;;;;;;;0.50;0.10;;;4.60;1.00;;;;;;4995401;28;20508;-66
2021/12/12 08:43:20;;;;;;;0.70;0.30;;;4.60;1.00;;;;;;4977918;28;20435;-67
2021/12/12 08:45:52;;;;;;;11.53;1.27;;;4.70;1.00;;;;;;4977548;28;20708;-69
2021/12/12 08:48:23;;;;;;;0.50;0.23;;;4.60;1.00;;;;;;4996452;28;20451;-68
2021/12/12 08:50:55;;;;;;;0.50;0.17;;;4.60;1.00;;;;;;4996232;28;20471;-66
2021/12/12 08:53:25;;;;;;;0.57;0.33;;;4.60;1.00;;;;;;4996517;28;20564;-66
2021/12/12 08:55:56;;;;;;;0.60;0.30;;;4.50;1.00;;;;;;4996502;28;20449;-67
2021/12/12 08:58:28;;;;;;;1.00;0.57;;;4.50;1.00;;;;;;4996436;28;20460;-69
2021/12/12 09:00:59;;;;;;;0.50;0.10;;;4.60;1.00;;;;;;4995530;28;20460;-67
2021/12/12 09:03:33;;;;;;;0.63;0.43;;;4.60;1.00;;;;;;4996738;28;20541;-67
2021/12/12 09:06:01;;;;;;;0.50;0.10;;;4.60;1.00;;;;;;4996511;28;20540;-66
2021/12/12 09:08:39;;;;;;;0.50;0.10;;;4.70;1.00;;;;;;4995720;28;20450;-70
2021/12/12 09:11:14;;;;;;;0.70;0.30;;;3.10;1.00;;;;;;4995456;28;20476;-66
2021/12/12 09:13:48;;;;;;;0.70;0.30;;;4.80;1.00;;;;;;4993073;28;20518;-66
2021/12/12 09:16:21;;;;;;;0.70;0.60;;;4.80;1.00;;;;;;4989355;28;20459;-65
2021/12/12 09:18:54;;;;;;;1.77;1.00;;;4.90;1.00;;;;;;4996481;28;20454;-67
2021/12/12 09:21:26;;;;;;;3.03;2.83;;;4.90;1.00;;;;;;4995922;28;20472;-67
2021/12/12 09:24:06;;;;;;;1.10;0.40;;;4.90;1.00;;;;;;4996185;28;20442;-67
2021/12/12 09:26:38;;;;;;;0.50;0.10;;;4.90;1.00;;;;;;4994568;28;20529;-67
2021/12/12 09:29:15;;;;;;;0.63;0.40;;;5.00;1.00;;;;;;4993554;28;20446;-70
2021/12/12 09:31:50;;;;;;;0.60;0.20;;;5.00;1.00;;;;;;4994424;28;20580;-65
2021/12/12 09:34:25;;;;;;;1.70;1.50;;;4.90;1.00;;;;;;4993800;28;20443;-65
2021/12/12 09:37:16;;;;;;;0.50;0.20;;;4.90;1.00;;;;;;4992767;28;20463;-66
2021/12/12 09:39:50;;;;;;;1.27;0.67;;;4.60;1.00;;;;;;4989864;28;20453;-65
2021/12/12 09:42:32;;;;;;;2.83;1.07;;;4.70;1.00;;;;;;5024372;23;20495;-65
2021/12/12 09:45:32;;;;;;;0.77;0.77;;;4.80;1.00;;;;;;5032038;28;20451;-66
2021/12/12 09:51:26;;;;;;;3.10;2.63;;;4.80;1.00;;;;;;5031312;28;20552;-69
2021/12/12 09:54:18;;;;;;;0.50;0.10;;;4.80;1.00;;;;;;5031864;28;20995;-64
2021/12/12 09:56:56;;;;;;;0.60;0.50;;;4.80;1.00;;;;;;5030337;28;20947;-64
2021/12/12 09:59:43;;;;;;;0.50;0.10;;;4.90;1.00;;;;;;5031430;28;20447;-64
2021/12/12 10:02:22;;;;;;;0.70;0.63;;;5.00;1.00;;;;;;5031817;28;20468;-65
2021/12/12 10:05:05;;;;;;;1.00;0.87;;;5.00;1.00;;;;;;5029590;28;20518;-65
2021/12/12 10:07:45;;;;;;;0.50;0.10;;;4.90;1.00;;;;;;5032309;28;20452;-65
2021/12/12 10:10:17;;;;;;;0.50;0.10;;;4.80;1.00;;;;;;5069016;28;20493;-65
2021/12/12 10:12:54;;;;;;;0.60;0.47;;;4.80;1.00;;;;;;5071341;28;20491;-65
2021/12/12 10:15:25;;;;;;;0.50;0.30;;;4.90;1.00;;;;;;5070790;28;20442;-64
2021/12/12 10:17:58;;;;;;;0.50;0.20;;;4.90;1.00;;;;;;5070215;28;20447;-64
2021/12/12 10:20:32;;;;;;;0.50;0.10;;;4.90;1.00;;;;;;5069495;28;20453;-65
2021/12/12 10:23:12;;;;;;;1.33;1.23;;;5.00;1.00;;;;;;5072084;28;20464;-65
2021/12/12 10:25:47;;;;;;;0.67;0.47;;;5.10;1.00;;;;;;5052141;28;20465;-64
2021/12/12 10:28:22;;;;;;;0.50;0.20;;;5.10;1.00;;;;;;5059610;28;20468;-66
2021/12/12 10:30:59;;;;;;;0.50;0.20;;;5.20;1.00;;;;;;5071231;28;20477;-67
2021/12/12 10:33:36;;;;;;;0.50;0.20;;;5.10;1.00;;;;;;5071748;28;20511;-64
2021/12/12 10:36:08;;;;;;;0.60;0.30;;;5.20;1.00;;;;;;5071255;28;20530;-65
2021/12/12 10:38:41;;;;;;;0.50;0.10;;;5.20;1.00;;;;;;5071805;28;20547;-64
2021/12/12 10:41:16;;;;;;;0.50;0.10;;;5.20;1.00;;;;;;5070529;28;20546;-66
2021/12/12 10:43:50;;;;;;;0.60;0.40;;;5.20;1.00;;;;;;5071675;28;20807;-64
2021/12/12 10:46:22;;;;;;;0.90;0.63;;;5.20;1.00;;;;;;5071816;28;20446;-64
2021/12/12 10:49:01;;;;;;;3.90;3.70;;;5.10;1.00;;;;;;5070935;28;20465;-65
2021/12/12 10:51:35;;;;;;;0.73;0.73;;;5.30;1.00;;;;;;5067113;28;20473;-64
2021/12/12 10:54:09;;;;;;;0.50;0.10;;;5.30;1.00;;;;;;5070234;28;20478;-65
2021/12/12 10:56:41;;;;;;;0.50;0.10;;;5.30;1.00;;;;;;5066696;28;20995;-66
2021/12/12 10:59:21;;;;;;;0.60;0.40;;;5.20;1.00;;;;;;5067793;28;20460;-63
2021/12/12 11:01:53;;;;;;;1.13;0.30;;;5.30;1.00;;;;;;5069657;28;20838;-65
2021/12/12 11:04:24;;;;;;;0.60;0.30;;;6.80;1.00;;;;;;5071093;28;20432;-67
2021/12/12 11:06:56;;;;;;;0.50;0.10;;;5.30;1.00;;;;;;5071013;28;20455;-64
2021/12/12 11:09:30;;;;;;;7.00;1.70;;;5.30;1.00;;;;;;5065644;28;20972;-65
2021/12/12 11:12:07;;;;;;;0.50;0.10;;;5.20;1.00;;;;;;5070962;28;20470;-63
2021/12/12 11:14:42;;;;;;;0.50;0.10;;;5.20;1.00;;;;;;5069265;28;20477;-65
2021/12/12 11:17:14;;;;;;;1.37;0.87;;;5.20;1.00;;;;;;5063193;28;20657;-63
2021/12/12 11:19:47;;;;;;;0.50;0.10;;;5.10;1.00;;;;;;5072494;28;20816;-65
2021/12/12 11:22:21;;;;;;;0.60;0.40;;;5.10;1.00;;;;;;5074163;28;20495;-66
2021/12/12 11:24:56;;;;;;;3.47;3.30;;;5.10;1.00;;;;;;5073154;28;20458;-65
2021/12/12 11:27:29;;;;;;;0.80;0.53;;;5.10;1.00;;;;;;5072476;28;20446;-65
2021/12/12 11:30:08;;;;;;;0.50;0.10;;;5.00;1.00;;;;;;5071959;28;20447;-64
2021/12/12 11:32:37;;;;;;;6.07;3.60;;;5.00;1.00;;;;;;5072298;28;20467;-65
2021/12/12 11:35:08;;;;;;;2.30;0.40;;;4.90;1.00;;;;;;5072179;28;20818;-64
2021/12/12 11:37:42;;;;;;;1.07;0.37;;;4.90;1.00;;;;;;5052241;28;20444;-64
2021/12/12 11:40:19;;;;;;;0.50;0.20;;;4.90;1.00;;;;;;5062418;28;20446;-65
2021/12/12 11:42:50;;;;;;;0.60;0.30;;;4.90;1.00;;;;;;5073348;28;20494;-66
2021/12/12 11:45:24;;;;;;;0.50;0.10;;;4.90;1.00;;;;;;5073136;28;20442;-65
2021/12/12 11:48:03;;;;;;;0.70;0.40;;;5.00;1.00;;;;;;5074075;28;20446;-64
2021/12/12 11:50:41;;;;;;;0.50;0.10;;;5.00;1.00;;;;;;5073446;28;20446;-64
2021/12/12 11:53:15;;;;;;;2.00;1.80;;;5.10;1.00;;;;;;5073977;28;20502;-65
2021/12/12 11:55:45;;;;;;;1.43;1.10;;;5.10;1.00;;;;;;5073766;28;20482;-66
2021/12/12 11:58:24;;;;;;;0.50;0.20;;;5.10;1.00;;;;;;5073630;28;20436;-64
2021/12/12 12:01:00;;;;;;;2.00;0.83;;;5.20;1.00;;;;;;5073717;28;20766;-64
2021/12/12 12:03:57;;;;;;;0.70;0.50;;;5.20;1.00;;;;;;5073316;28;20452;-66
2021/12/12 12:06:34;;;;;;;0.50;0.10;;;5.20;1.00;;;;;;5064923;28;20446;-66
2021/12/12 12:09:19;;;;;;;0.50;0.10;;;5.30;1.00;;;;;;5073265;28;20955;-65
2021/12/12 12:12:07;;;;;;;1.53;1.30;;;5.30;1.00;;;;;;5073265;28;20561;-67
2021/12/12 12:14:45;;;;;;;0.50;0.10;;;5.30;1.00;;;;;;5053826;28;20566;-65
2021/12/12 12:17:23;;;;;;;0.50;0.10;;;5.40;1.00;;;;;;5055011;28;20446;-65
2021/12/12 12:20:07;;;;;;;0.97;0.87;;;5.40;1.00;;;;;;5073471;28;20443;-66
2021/12/12 12:22:44;;;;;;;0.50;0.10;;;5.40;1.00;;;;;;5073395;28;20490;-67
2021/12/12 12:25:20;;;;;;;0.50;0.10;;;5.40;1.00;;;;;;5072520;28;20443;-64
2021/12/12 12:27:53;;;;;;;0.60;0.27;;;5.50;1.00;;;;;;5073196;28;20449;-64
2021/12/12 12:31:36;;;;;;;2.20;1.20;;;5.50;1.00;;;;;;5072740;28;20443;-65
2021/12/12 12:35:24;;;;;;;0.50;0.10;;;5.50;1.00;;;;;;5052199;28;20538;-64
2021/12/12 12:39:03;;;;;;;0.50;0.10;;;5.50;1.00;;;;;;5072871;28;20445;-66
2021/12/12 12:42:08;;;;;;;0.93;0.70;;;5.60;1.00;;;;;;5072052;28;20560;-65
2021/12/12 12:45:43;;;;;;;0.50;0.20;;;5.60;1.00;;;;;;5073552;28;20442;-65
2021/12/12 12:48:59;;;;;;;0.50;0.10;;;5.60;1.00;;;;;;5072486;28;20454;-67
2021/12/12 12:51:40;;;;;;;0.50;0.10;;;5.60;1.00;;;;;;5072217;28;20462;-65
2021/12/12 12:54:28;;;;;;;0.50;0.10;;;5.60;1.00;;;;;;5072228;28;20549;-65
2021/12/12 12:57:21;;;;;;;0.50;0.20;;;5.70;1.00;;;;;;5072553;28;20439;-66
2021/12/12 13:00:10;;;;;;;1.33;1.03;;;5.70;1.00;;;;;;5072113;28;20446;-66
2021/12/12 13:03:14;;;;;;;0.50;0.10;;;5.70;1.00;;;;;;5072948;28;20482;-66
2021/12/12 13:06:28;;;;;;;0.50;0.10;;;5.70;1.00;;;;;;5071763;28;20461;-65
2021/12/12 13:09:11;;;;;;;0.50;0.20;;;5.70;1.00;;;;;;5072226;28;20824;-65
2021/12/12 13:11:51;;;;;;;0.50;0.10;;;5.60;1.00;;;;;;5072051;28;20471;-66
2021/12/12 13:14:31;;;;;;;0.50;0.10;;;5.60;1.00;;;;;;5072582;28;20475;-64
2021/12/12 13:17:11;;;;;;;0.50;0.10;;;5.70;1.00;;;;;;5072760;28;20443;-65
2021/12/12 13:19:49;;;;;;;0.50;0.20;;;5.70;1.00;;;;;;5072021;28;20446;-65
2021/12/12 13:22:24;;;;;;;0.50;0.10;;;5.60;1.00;;;;;;5063051;28;20554;-67
2021/12/12 13:25:05;;;;;;;2.73;2.63;;;5.60;1.00;;;;;;5071926;28;20447;-64
2021/12/12 13:28:02;;;;;;;1.17;0.60;;;5.50;1.00;;;;;;5071936;28;20434;-66
2021/12/12 13:30:42;;;;;;;0.50;0.20;;;5.50;1.00;;;;;;5058866;28;20539;-64
2021/12/12 13:33:18;;;;;;;1.03;0.93;;;5.50;1.00;;;;;;5070932;28;20469;-66
2021/12/12 13:36:01;;;;;;;0.80;0.80;;;5.50;1.00;;;;;;5071498;28;20996;-66
2021/12/12 13:38:42;;;;;;;0.50;0.10;;;5.60;1.00;;;;;;5071866;28;20538;-66
2021/12/12 13:41:19;;;;;;;0.80;0.73;;;5.60;1.00;;;;;;5071598;28;20445;-66
2021/12/12 13:43:53;;;;;;;0.80;0.67;;;5.60;1.00;;;;;;5071759;28;20451;-65
2021/12/12 13:46:32;;;;;;;0.50;0.10;;;5.60;1.00;;;;;;5071870;28;20438;-66
2021/12/12 13:49:08;;;;;;;0.50;0.10;;;5.60;1.00;;;;;;5071340;28;20458;-66
2021/12/12 13:51:45;;;;;;;1.00;0.80;;;5.70;1.00;;;;;;5071435;28;20852;-65
2021/12/12 13:54:24;;;;;;;1.10;0.70;;;5.70;1.00;;;;;;5071661;28;20506;-64
2021/12/12 13:57:13;;;;;;;0.50;0.10;;;5.70;1.00;;;;;;5072278;28;20451;-68
2021/12/12 13:59:57;;;;;;;0.60;0.40;;;5.80;1.00;;;;;;5072038;28;20439;-65
2021/12/12 14:02:26;;;;;;;0.50;0.10;;;5.90;1.00;;;;;;5051528;28;20969;-64